Time;durP1;ratioP1;P1;durP2;ratioP2;P2;SDS_P1;SDS_P2;PMS_P1;PMS_P2;Temp;Humidity;BMP_temperature;BMP_pressure;BME280_temperature;BME280_humidity;BME280_pressure;Samples;Min_cycle;Max_cycle;Signal;HPM_P1;HPM_P2
2021/05/29 00:02:16;;;;;;;2.53;2.33;;;14.90;98.00;;;;;;5034751;28;20225;-73
2021/05/29 00:04:42;;;;;;;2.17;2.07;;;14.80;98.20;;;;;;5018467;28;20245;-74
2021/05/29 00:07:08;;;;;;;2.23;2.03;;;14.80;98.10;;;;;;5032973;28;20518;-73
2021/05/29 00:09:36;;;;;;;1.87;1.77;;;14.70;98.20;;;;;;5050158;28;20548;-73
2021/05/29 00:12:03;;;;;;;2.50;2.30;;;14.70;98.40;;;;;;5051589;28;20511;-73
2021/05/29 00:14:32;;;;;;;2.87;2.60;;;14.60;98.30;;;;;;5034400;28;20461;-73
2021/05/29 00:16:58;;;;;;;2.33;2.13;;;14.50;98.40;;;;;;5047828;28;20540;-74
2021/05/29 00:19:23;;;;;;;2.47;2.10;;;14.50;98.40;;;;;;5034975;28;20559;-73
2021/05/29 00:21:50;;;;;;;3.77;2.10;;;14.60;98.60;;;;;;5031862;28;20221;-74
2021/05/29 00:24:15;;;;;;;2.50;2.17;;;14.50;98.50;;;;;;5053605;28;20229;-73
2021/05/29 00:26:41;;;;;;;3.43;2.97;;;14.60;98.60;;;;;;5001104;28;20514;-73
2021/05/29 00:29:07;;;;;;;3.77;2.40;;;14.50;98.50;;;;;;5034435;28;20210;-73
2021/05/29 00:31:33;;;;;;;1.90;1.80;;;14.50;98.60;;;;;;5054104;28;20229;-73
2021/05/29 00:33:58;;;;;;;2.67;1.93;;;14.50;98.60;;;;;;5031577;28;20220;-73
2021/05/29 00:36:24;;;;;;;2.13;1.93;;;14.50;98.60;;;;;;5022818;28;20232;-73
2021/05/29 00:38:50;;;;;;;3.40;2.17;;;14.50;98.50;;;;;;5032717;28;20216;-73
2021/05/29 00:41:17;;;;;;;2.97;2.10;;;14.40;98.60;;;;;;5034683;28;20216;-73
2021/05/29 00:43:43;;;;;;;2.20;2.00;;;14.40;98.50;;;;;;5039168;28;20228;-74
2021/05/29 00:46:09;;;;;;;3.17;2.10;;;14.40;98.60;;;;;;5009099;28;20456;-73
2021/05/29 00:48:36;;;;;;;3.00;2.70;;;14.30;98.60;;;;;;5070696;28;20224;-73
2021/05/29 00:51:06;;;;;;;3.80;2.47;;;14.20;98.70;;;;;;5031626;28;20448;-73
2021/05/29 00:53:33;;;;;;;5.03;2.43;;;14.20;98.70;;;;;;5024613;28;21032;-73
2021/05/29 00:56:03;;;;;;;3.77;2.37;;;14.20;98.70;;;;;;5056075;28;20920;-73
2021/05/29 00:58:29;;;;;;;1.90;1.70;;;14.20;98.80;;;;;;5046803;28;20459;-74
2021/05/29 01:00:55;;;;;;;3.33;1.77;;;14.20;98.70;;;;;;5047978;28;20575;-73
2021/05/29 01:03:22;;;;;;;2.40;2.17;;;14.20;98.80;;;;;;5052462;28;20706;-73
2021/05/29 01:05:48;;;;;;;2.20;2.00;;;14.10;98.60;;;;;;5008798;28;20460;-73
2021/05/29 01:08:14;;;;;;;1.97;1.80;;;14.10;98.70;;;;;;5078150;28;20460;-74
2021/05/29 01:10:41;;;;;;;1.57;1.47;;;14.10;98.70;;;;;;5044728;28;20235;-74
2021/05/29 01:13:09;;;;;;;2.33;2.13;;;14.00;98.80;;;;;;5045117;28;20467;-73
2021/05/29 01:15:39;;;;;;;1.70;1.60;;;14.00;98.80;;;;;;5028124;28;20978;-73
2021/05/29 01:18:06;;;;;;;1.93;1.83;;;14.00;98.90;;;;;;5028798;28;20470;-73
2021/05/29 01:20:33;;;;;;;1.83;1.73;;;14.00;98.90;;;;;;5045050;28;20467;-74
2021/05/29 01:22:59;;;;;;;2.33;1.90;;;14.00;98.80;;;;;;5023943;28;20464;-73
2021/05/29 01:25:32;;;;;;;2.10;1.80;;;14.00;98.80;;;;;;5030240;28;20469;-73
2021/05/29 01:28:03;;;;;;;2.03;1.73;;;14.00;98.80;;;;;;5049384;28;20221;-74
2021/05/29 01:30:32;;;;;;;2.90;1.80;;;14.00;98.90;;;;;;5064714;28;20822;-73
2021/05/29 01:32:58;;;;;;;1.50;1.40;;;14.00;98.90;;;;;;5048516;28;20554;-74
2021/05/29 01:35:25;;;;;;;2.57;1.90;;;13.90;98.80;;;;;;5030141;28;20462;-73
2021/05/29 01:37:53;;;;;;;3.27;2.30;;;13.90;98.80;;;;;;5046785;28;20474;-73
2021/05/29 01:40:19;;;;;;;1.90;1.77;;;13.90;98.90;;;;;;5023991;28;20459;-74
2021/05/29 01:42:45;;;;;;;2.30;2.00;;;13.90;98.90;;;;;;5060163;28;20466;-74
2021/05/29 01:45:12;;;;;;;4.63;1.60;;;13.80;98.90;;;;;;5059635;28;20303;-73
2021/05/29 01:47:42;;;;;;;1.63;1.53;;;13.80;98.90;;;;;;5061062;28;20852;-74
2021/05/29 01:50:11;;;;;;;2.57;2.10;;;13.80;99.20;;;;;;5038727;28;20464;-73
2021/05/29 01:52:58;;;;;;;1.60;1.50;;;13.70;98.80;;;;;;5021887;28;20615;-73
2021/05/29 01:55:27;;;;;;;1.63;1.53;;;13.60;98.90;;;;;;5035991;28;20559;-74
2021/05/29 01:57:53;;;;;;;2.00;1.90;;;13.60;98.90;;;;;;5024445;28;20523;-73
2021/05/29 02:00:22;;;;;;;2.10;1.70;;;13.50;98.90;;;;;;5024543;28;20457;-74
2021/05/29 02:02:48;;;;;;;1.83;1.73;;;13.50;98.90;;;;;;5020705;28;20457;-73
2021/05/29 02:05:19;;;;;;;1.60;1.50;;;13.50;98.90;;;;;;5013332;28;20460;-73
2021/05/29 02:07:45;;;;;;;1.70;1.60;;;13.50;98.90;;;;;;5057635;28;20228;-73
2021/05/29 02:10:17;;;;;;;1.63;1.50;;;13.40;99.00;;;;;;5060902;28;20463;-73
2021/05/29 02:12:48;;;;;;;1.80;1.70;;;13.40;99.00;;;;;;5025656;28;20861;-73
2021/05/29 02:15:36;;;;;;;1.70;1.60;;;13.40;99.10;;;;;;5066748;28;20466;-73
2021/05/29 02:18:06;;;;;;;1.50;1.40;;;13.30;99.10;;;;;;5027314;28;20909;-76
2021/05/29 02:20:49;;;;;;;1.80;1.70;;;13.30;99.00;;;;;;5059254;28;20999;-75
2021/05/29 02:23:24;;;;;;;1.90;1.80;;;13.30;99.10;;;;;;5080042;28;20456;-75
2021/05/29 02:25:53;;;;;;;1.67;1.57;;;13.30;99.10;;;;;;5032056;28;20467;-73
2021/05/29 02:28:20;;;;;;;2.43;1.80;;;13.30;99.20;;;;;;5059425;28;20471;-73
2021/05/29 02:30:50;;;;;;;1.87;1.67;;;13.20;99.50;;;;;;5062802;28;20468;-73
2021/05/29 02:33:16;;;;;;;1.50;1.40;;;13.30;99.20;;;;;;5012967;28;20468;-72
2021/05/29 02:35:43;;;;;;;1.93;1.60;;;13.20;99.10;;;;;;5031333;28;20474;-73
2021/05/29 02:38:08;;;;;;;1.53;1.30;;;13.20;99.10;;;;;;5020027;28;20494;-73
2021/05/29 02:40:35;;;;;;;1.87;1.77;;;13.20;99.20;;;;;;5030616;28;20484;-74
2021/05/29 02:43:00;;;;;;;1.87;1.77;;;13.20;99.10;;;;;;5054488;28;20646;-74
2021/05/29 02:45:27;;;;;;;2.00;1.77;;;13.10;99.20;;;;;;5029155;28;20557;-73
2021/05/29 02:47:53;;;;;;;1.43;1.33;;;13.00;99.30;;;;;;5057413;28;20308;-73
2021/05/29 02:50:19;;;;;;;3.63;1.30;;;13.00;99.40;;;;;;5069992;28;20468;-73
2021/05/29 02:52:44;;;;;;;1.60;1.43;;;13.00;99.40;;;;;;5061351;28;20469;-73
2021/05/29 02:55:13;;;;;;;1.80;1.70;;;13.00;99.30;;;;;;5048387;28;20624;-73
2021/05/29 02:57:38;;;;;;;1.87;1.77;;;13.00;99.30;;;;;;5034539;28;20233;-72
2021/05/29 03:00:07;;;;;;;1.70;1.60;;;12.90;99.30;;;;;;5038992;28;20509;-73
2021/05/29 03:02:33;;;;;;;1.60;1.50;;;12.90;99.30;;;;;;5023368;28;20222;-73
2021/05/29 03:04:59;;;;;;;1.57;1.47;;;12.90;99.40;;;;;;5075527;28;20458;-73
2021/05/29 03:07:25;;;;;;;1.87;1.60;;;12.90;99.50;;;;;;5073279;28;20662;-73
2021/05/29 03:09:50;;;;;;;2.07;1.87;;;12.90;99.40;;;;;;5055909;28;20296;-73
2021/05/29 03:12:16;;;;;;;1.57;1.47;;;12.90;99.50;;;;;;5074556;28;20247;-72
2021/05/29 03:14:42;;;;;;;1.83;1.73;;;13.00;99.50;;;;;;5025461;28;20221;-73
2021/05/29 03:17:08;;;;;;;1.63;1.53;;;12.70;99.30;;;;;;5067009;28;20220;-73
2021/05/29 03:19:34;;;;;;;1.67;1.57;;;12.70;99.50;;;;;;5014162;28;20212;-73
2021/05/29 03:21:59;;;;;;;2.17;1.37;;;12.70;99.50;;;;;;5051462;28;20491;-73
2021/05/29 03:24:25;;;;;;;1.60;1.23;;;12.70;99.50;;;;;;5028283;28;20281;-73
2021/05/29 03:26:51;;;;;;;2.10;1.90;;;12.70;99.50;;;;;;5071460;28;20231;-74
2021/05/29 03:29:16;;;;;;;1.53;1.40;;;12.80;99.50;;;;;;5025336;28;20251;-72
2021/05/29 03:31:42;;;;;;;1.77;1.67;;;12.70;99.40;;;;;;5039673;28;20216;-74
2021/05/29 03:34:08;;;;;;;1.70;1.60;;;12.70;99.50;;;;;;5047702;28;20343;-73
2021/05/29 03:36:34;;;;;;;1.20;1.13;;;12.70;99.50;;;;;;5030736;28;20807;-73
2021/05/29 03:39:00;;;;;;;2.80;1.60;;;12.70;99.50;;;;;;5029582;28;20546;-74
2021/05/29 03:41:25;;;;;;;1.87;1.77;;;12.70;99.60;;;;;;5060810;28;20220;-73
2021/05/29 03:43:51;;;;;;;1.87;1.77;;;12.70;99.60;;;;;;5027936;28;20217;-75
2021/05/29 03:46:17;;;;;;;2.00;1.90;;;12.70;99.50;;;;;;5048099;28;20212;-74
2021/05/29 03:48:43;;;;;;;1.50;1.40;;;12.60;99.40;;;;;;5063733;28;20221;-75
2021/05/29 03:51:08;;;;;;;1.77;1.67;;;12.60;99.50;;;;;;5054515;28;20204;-76
2021/05/29 03:53:34;;;;;;;4.00;1.80;;;12.60;99.60;;;;;;5056994;28;20232;-75
2021/05/29 03:56:00;;;;;;;2.30;1.60;;;12.60;99.60;;;;;;5072563;28;20273;-75
2021/05/29 03:58:25;;;;;;;1.80;1.70;;;12.50;99.70;;;;;;5043877;28;20322;-75
2021/05/29 04:00:51;;;;;;;1.47;1.37;;;12.50;99.80;;;;;;5022469;28;20221;-75
2021/05/29 04:03:17;;;;;;;1.70;1.60;;;12.50;99.80;;;;;;5054189;28;20220;-75
2021/05/29 04:05:43;;;;;;;1.50;1.40;;;12.50;99.80;;;;;;5023961;28;20224;-75
2021/05/29 04:08:08;;;;;;;1.57;1.47;;;12.50;99.80;;;;;;5060472;28;20634;-75
2021/05/29 04:10:36;;;;;;;1.50;1.40;;;12.50;99.90;;;;;;5035625;28;20217;-75
2021/05/29 04:13:02;;;;;;;1.40;1.30;;;12.50;99.80;;;;;;5034111;28;20231;-75
2021/05/29 04:15:27;;;;;;;1.93;1.73;;;12.50;99.80;;;;;;5030722;28;20529;-75
2021/05/29 04:17:54;;;;;;;1.70;1.60;;;12.40;99.90;;;;;;5027157;28;20463;-75
2021/05/29 04:20:22;;;;;;;2.30;2.00;;;12.40;99.90;;;;;;5040725;28;20213;-75
2021/05/29 04:22:49;;;;;;;1.77;1.67;;;12.40;99.90;;;;;;5063969;28;20825;-75
2021/05/29 04:25:18;;;;;;;2.00;1.90;;;12.50;99.90;;;;;;5056331;28;20489;-75
2021/05/29 04:27:45;;;;;;;1.70;1.60;;;12.50;99.90;;;;;;5015479;28;20456;-75
2021/05/29 04:30:14;;;;;;;2.37;2.00;;;12.50;99.90;;;;;;5052864;28;20463;-76
2021/05/29 04:32:39;;;;;;;1.70;1.57;;;12.50;99.90;;;;;;5039839;28;20522;-76
2021/05/29 04:35:06;;;;;;;3.80;1.90;;;12.50;99.90;;;;;;5053944;28;20459;-76
2021/05/29 04:37:32;;;;;;;1.57;1.43;;;12.50;99.90;;;;;;5038363;28;20303;-75
2021/05/29 04:39:58;;;;;;;2.10;1.93;;;12.50;99.90;;;;;;5056567;28;20547;-75
2021/05/29 04:42:23;;;;;;;2.00;1.83;;;12.50;99.90;;;;;;5059972;28;20224;-75
2021/05/29 04:44:49;;;;;;;2.03;1.93;;;12.50;99.90;;;;;;5057893;28;20303;-75
2021/05/29 04:47:15;;;;;;;1.80;1.70;;;12.60;99.90;;;;;;5054523;28;20262;-75
2021/05/29 04:49:41;;;;;;;1.90;1.80;;;12.60;99.90;;;;;;5053114;28;20320;-75
2021/05/29 04:52:07;;;;;;;1.83;1.73;;;12.60;99.90;;;;;;5060441;28;20661;-76
2021/05/29 04:54:33;;;;;;;1.70;1.60;;;12.60;99.90;;;;;;5056612;28;20231;-75
2021/05/29 04:56:59;;;;;;;1.80;1.70;;;12.60;99.90;;;;;;5028450;28;20219;-75
2021/05/29 04:59:24;;;;;;;1.90;1.80;;;12.60;99.90;;;;;;5027915;28;20491;-73
2021/05/29 05:01:50;;;;;;;1.87;1.77;;;12.60;99.90;;;;;;5076290;28;20475;-73
2021/05/29 05:04:16;;;;;;;1.57;1.47;;;12.60;99.90;;;;;;5030234;28;20279;-73
2021/05/29 05:06:43;;;;;;;1.70;1.60;;;12.70;99.90;;;;;;5061870;28;20216;-73
2021/05/29 05:09:08;;;;;;;1.97;1.70;;;12.70;99.90;;;;;;5031880;28;20462;-73
2021/05/29 05:11:35;;;;;;;3.53;2.30;;;12.70;99.90;;;;;;5063430;28;20444;-73
2021/05/29 05:14:01;;;;;;;1.80;1.70;;;12.70;99.90;;;;;;5026000;28;20228;-73
2021/05/29 05:16:27;;;;;;;1.60;1.50;;;12.70;99.90;;;;;;5073127;28;20516;-73
2021/05/29 05:18:53;;;;;;;1.70;1.60;;;12.80;99.90;;;;;;5058458;28;21025;-73
2021/05/29 05:21:20;;;;;;;1.93;1.70;;;12.80;99.90;;;;;;5059614;28;20219;-73
2021/05/29 05:23:49;;;;;;;2.00;1.80;;;12.80;99.90;;;;;;5025288;28;20457;-73
2021/05/29 05:26:15;;;;;;;2.17;1.93;;;12.90;99.90;;;;;;5048287;28;20463;-73
2021/05/29 05:28:41;;;;;;;1.70;1.47;;;12.90;99.90;;;;;;5051621;28;20970;-73
2021/05/29 05:31:06;;;;;;;1.63;1.53;;;12.90;99.90;;;;;;5046006;28;20263;-73
2021/05/29 05:33:38;;;;;;;2.03;1.80;;;13.00;99.90;;;;;;5056908;28;20636;-73
2021/05/29 05:36:06;;;;;;;2.10;1.63;;;13.00;99.90;;;;;;5061938;28;20303;-73
2021/05/29 05:38:32;;;;;;;1.93;1.50;;;13.10;99.90;;;;;;5046568;28;20467;-73
2021/05/29 05:40:58;;;;;;;1.60;1.50;;;13.10;99.90;;;;;;5039975;28;20468;-73
2021/05/29 05:43:23;;;;;;;1.63;1.53;;;13.20;99.90;;;;;;5076790;28;20241;-73
2021/05/29 05:45:49;;;;;;;2.00;1.77;;;13.20;99.90;;;;;;5050423;28;20228;-74
2021/05/29 05:48:15;;;;;;;1.90;1.80;;;13.30;99.90;;;;;;5076833;28;20567;-73
2021/05/29 05:50:57;;;;;;;3.90;2.00;;;13.30;99.90;;;;;;5058311;28;20227;-74
2021/05/29 05:53:25;;;;;;;1.80;1.70;;;13.40;99.90;;;;;;5056901;28;20637;-73
2021/05/29 05:55:55;;;;;;;1.87;1.77;;;13.50;99.90;;;;;;5075318;28;20466;-73
2021/05/29 05:58:21;;;;;;;2.10;1.67;;;13.50;99.90;;;;;;5055963;28;20470;-73
2021/05/29 06:00:47;;;;;;;2.07;1.93;;;13.60;99.90;;;;;;5056051;28;20451;-74
2021/05/29 06:03:13;;;;;;;3.10;2.00;;;13.70;99.90;;;;;;5037635;28;21022;-73
2021/05/29 06:05:39;;;;;;;1.60;1.50;;;13.70;99.90;;;;;;5055994;28;20465;-73
2021/05/29 06:08:05;;;;;;;2.83;2.60;;;13.80;99.90;;;;;;5022564;28;20228;-73
2021/05/29 06:10:31;;;;;;;1.50;1.27;;;13.90;99.90;;;;;;5039489;28;20236;-73
2021/05/29 06:12:56;;;;;;;1.50;1.40;;;14.00;99.90;;;;;;5061691;28;20306;-73
2021/05/29 06:19:08;;;;;;;1.73;1.47;;;14.10;99.90;;;;;;5071295;28;20242;-73
2021/05/29 06:20:55;;;;;;;2.17;1.70;;;14.20;99.90;;;;;;4999168;28;20512;-73
2021/05/29 06:23:21;;;;;;;1.53;1.40;;;14.20;99.90;;;;;;5035076;28;20972;-73
2021/05/29 06:25:46;;;;;;;1.40;1.30;;;14.30;99.90;;;;;;5040041;28;20221;-74
2021/05/29 06:28:12;;;;;;;1.47;1.37;;;14.40;99.90;;;;;;5021214;28;20225;-73
2021/05/29 06:30:38;;;;;;;1.90;1.80;;;14.50;99.90;;;;;;5039498;28;20205;-73
2021/05/29 06:33:05;;;;;;;2.03;1.90;;;14.50;99.90;;;;;;5030528;28;20201;-73
2021/05/29 06:35:31;;;;;;;2.13;1.93;;;14.60;99.90;;;;;;5029001;28;20213;-73
2021/05/29 06:37:57;;;;;;;1.60;1.50;;;14.60;99.90;;;;;;5027990;28;20823;-74
2021/05/29 06:40:22;;;;;;;1.73;1.63;;;14.70;99.90;;;;;;5039015;28;20456;-74
2021/05/29 06:42:48;;;;;;;1.43;1.33;;;14.80;99.90;;;;;;5027520;28;20217;-74
2021/05/29 06:45:14;;;;;;;1.77;1.67;;;14.80;99.90;;;;;;5018104;28;20685;-73
2021/05/29 06:47:40;;;;;;;1.60;1.50;;;14.90;99.90;;;;;;5040082;28;20301;-73
2021/05/29 06:50:07;;;;;;;1.63;1.53;;;14.90;99.90;;;;;;5042149;28;20544;-73
2021/05/29 06:52:35;;;;;;;1.70;1.60;;;15.00;99.90;;;;;;4995212;28;20233;-73
2021/05/29 07:00:11;;;;;;;1.50;1.40;;;15.20;99.90;;;;;;5040383;28;20217;-73
2021/05/29 07:02:38;;;;;;;1.60;1.50;;;15.30;99.90;;;;;;5051990;28;21465;-73
2021/05/29 07:05:06;;;;;;;1.70;1.60;;;15.40;99.90;;;;;;5034704;28;20456;-73
2021/05/29 07:07:32;;;;;;;2.00;1.90;;;15.50;99.90;;;;;;5022161;28;20532;-73
2021/05/29 07:10:07;;;;;;;2.33;1.80;;;15.60;99.90;;;;;;5016102;28;20842;-73
2021/05/29 07:12:32;;;;;;;1.67;1.57;;;15.70;99.90;;;;;;5036296;28;20518;-73
2021/05/29 07:14:58;;;;;;;1.93;1.80;;;15.80;99.90;;;;;;5039595;28;20453;-73
2021/05/29 07:17:30;;;;;;;1.83;1.60;;;15.80;99.90;;;;;;5022369;28;20213;-73
2021/05/29 07:19:56;;;;;;;2.13;1.93;;;15.80;99.90;;;;;;5039080;28;20272;-74
2021/05/29 07:22:21;;;;;;;2.47;2.27;;;15.90;99.90;;;;;;5027140;28;20464;-73
2021/05/29 07:24:47;;;;;;;1.57;1.40;;;16.00;99.90;;;;;;5037622;28;20228;-74
2021/05/29 07:27:13;;;;;;;1.77;1.60;;;16.10;99.90;;;;;;5006034;28;20291;-73
2021/05/29 07:29:38;;;;;;;1.80;1.67;;;16.10;99.90;;;;;;5037621;28;20217;-74
2021/05/29 07:32:04;;;;;;;2.60;1.50;;;16.10;99.90;;;;;;5006630;28;20759;-74
2021/05/29 07:34:30;;;;;;;1.70;1.60;;;16.20;99.90;;;;;;5040130;28;20244;-73
2021/05/29 07:36:56;;;;;;;1.57;1.30;;;16.30;99.90;;;;;;5057178;28;20666;-74
2021/05/29 07:39:21;;;;;;;1.30;1.20;;;16.30;99.90;;;;;;5041104;28;20587;-74
2021/05/29 07:41:47;;;;;;;1.13;1.00;;;16.40;99.90;;;;;;5055558;28;20213;-73
2021/05/29 07:44:13;;;;;;;2.07;1.80;;;16.50;99.90;;;;;;5034770;28;20592;-73
2021/05/29 07:46:38;;;;;;;1.87;1.23;;;16.70;99.90;;;;;;5038230;28;20290;-74
2021/05/29 07:49:06;;;;;;;3.13;1.20;;;16.70;99.90;;;;;;5053397;28;20281;-74
2021/05/29 07:51:36;;;;;;;1.30;1.20;;;16.80;99.90;;;;;;5041709;28;20312;-74
2021/05/29 07:54:02;;;;;;;1.33;1.20;;;16.70;99.90;;;;;;5017639;28;20517;-74
2021/05/29 07:56:28;;;;;;;3.10;1.20;;;16.80;99.90;;;;;;5036331;28;20886;-73
2021/05/29 07:58:54;;;;;;;3.33;1.37;;;16.80;99.90;;;;;;5001816;28;20505;-73
2021/05/29 08:01:20;;;;;;;1.10;1.10;;;17.00;99.90;;;;;;5016255;28;20226;-73
2021/05/29 08:03:52;;;;;;;1.30;1.20;;;17.10;99.90;;;;;;4989332;28;20459;-74
2021/05/29 08:06:21;;;;;;;1.20;1.07;;;17.20;99.90;;;;;;5004034;28;20518;-73
2021/05/29 08:08:46;;;;;;;1.53;0.97;;;17.30;99.90;;;;;;5028516;28;20459;-73
2021/05/29 08:11:22;;;;;;;0.97;0.97;;;17.40;99.90;;;;;;5019932;28;20453;-74
2021/05/29 08:13:52;;;;;;;1.40;1.30;;;17.50;99.90;;;;;;5053654;28;20318;-74
2021/05/29 08:16:20;;;;;;;0.93;0.93;;;17.60;99.90;;;;;;5005127;28;20451;-73
2021/05/29 08:18:46;;;;;;;1.50;1.40;;;17.70;99.90;;;;;;5026418;28;20455;-74
2021/05/29 08:21:12;;;;;;;1.40;1.30;;;17.80;99.90;;;;;;5056415;28;20455;-74
2021/05/29 08:23:39;;;;;;;2.50;1.57;;;17.80;99.90;;;;;;5042412;28;20501;-74
2021/05/29 08:26:05;;;;;;;2.40;1.40;;;17.90;99.90;;;;;;5029492;28;20622;-74
2021/05/29 08:28:31;;;;;;;1.53;1.10;;;17.90;99.90;;;;;;5028771;28;20481;-73
2021/05/29 08:30:57;;;;;;;1.40;1.10;;;18.00;99.90;;;;;;5062797;28;20455;-74
2021/05/29 08:33:23;;;;;;;1.50;1.30;;;18.10;99.90;;;;;;5045385;28;20530;-73
2021/05/29 08:35:49;;;;;;;1.00;1.00;;;18.10;99.90;;;;;;5024715;28;20225;-74
2021/05/29 08:38:16;;;;;;;1.30;1.20;;;18.20;99.90;;;;;;5046175;28;20216;-74
2021/05/29 08:40:42;;;;;;;3.27;1.60;;;18.30;99.90;;;;;;5053657;28;20220;-74
2021/05/29 08:43:09;;;;;;;1.20;1.10;;;18.40;99.50;;;;;;5065594;28;20458;-74
2021/05/29 08:45:35;;;;;;;3.33;1.63;;;18.50;99.90;;;;;;5068684;28;20475;-74
2021/05/29 08:48:01;;;;;;;2.83;1.60;;;18.60;99.30;;;;;;5070301;28;20530;-74
2021/05/29 08:50:27;;;;;;;1.30;1.30;;;18.70;99.30;;;;;;5080952;28;20991;-74
2021/05/29 08:52:53;;;;;;;1.50;1.43;;;18.80;99.30;;;;;;5044003;28;20467;-74
2021/05/29 08:55:20;;;;;;;2.03;1.33;;;18.90;99.10;;;;;;5012078;28;20459;-73
2021/05/29 08:57:49;;;;;;;1.17;1.10;;;19.00;99.10;;;;;;5042663;28;20243;-76
2021/05/29 09:00:24;;;;;;;1.80;1.27;;;19.00;99.20;;;;;;5045215;28;20459;-76
2021/05/29 09:03:07;;;;;;;1.40;1.30;;;19.10;99.10;;;;;;5062266;28;20490;-76
2021/05/29 09:05:40;;;;;;;2.07;1.27;;;19.20;99.70;;;;;;5029678;28;20509;-76
2021/05/29 09:08:08;;;;;;;1.40;1.30;;;19.40;99.10;;;;;;5045408;28;20459;-76
2021/05/29 09:10:40;;;;;;;1.20;1.10;;;19.50;99.10;;;;;;5019004;28;20528;-76
2021/05/29 09:13:14;;;;;;;1.50;1.33;;;19.50;98.40;;;;;;5040342;28;20473;-76
2021/05/29 09:16:00;;;;;;;1.30;1.20;;;19.60;98.70;;;;;;5086202;28;20479;-76
2021/05/29 09:18:44;;;;;;;2.10;1.17;;;19.50;98.50;;;;;;5043032;28;20459;-76
2021/05/29 09:21:29;;;;;;;1.60;1.50;;;19.60;98.10;;;;;;5056304;28;20579;-76
2021/05/29 09:24:11;;;;;;;1.37;1.27;;;19.70;98.00;;;;;;5089391;28;20450;-76
2021/05/29 09:26:48;;;;;;;1.60;1.50;;;19.70;98.00;;;;;;5081235;28;20557;-76
2021/05/29 09:29:28;;;;;;;1.63;1.53;;;19.90;97.90;;;;;;5067535;28;20914;-76
2021/05/29 09:32:03;;;;;;;5.23;1.73;;;20.00;97.80;;;;;;5045256;28;20452;-76
2021/05/29 09:34:44;;;;;;;1.33;1.23;;;19.90;98.00;;;;;;5062011;28;20459;-76
2021/05/29 09:37:15;;;;;;;1.90;1.80;;;20.10;98.20;;;;;;5027635;28;20462;-76
2021/05/29 09:39:43;;;;;;;1.47;1.37;;;20.10;97.90;;;;;;5026936;28;20659;-76
2021/05/29 09:42:10;;;;;;;1.50;1.43;;;20.00;97.50;;;;;;5027226;28;20486;-76
2021/05/29 09:44:37;;;;;;;1.53;1.43;;;20.00;98.10;;;;;;5040293;28;20471;-76
2021/05/29 09:47:08;;;;;;;2.13;1.90;;;20.10;97.30;;;;;;5063453;28;20452;-76
2021/05/29 09:49:54;;;;;;;2.90;2.00;;;20.10;97.50;;;;;;5047546;28;20477;-76
2021/05/29 09:52:39;;;;;;;5.10;2.60;;;20.20;97.50;;;;;;5048179;28;21154;-76
2021/05/29 09:55:08;;;;;;;9.97;6.80;;;20.20;96.90;;;;;;5051707;28;20458;-76
2021/05/29 09:57:57;;;;;;;5.87;3.60;;;20.20;96.90;;;;;;5083190;28;20499;-76
2021/05/29 10:00:41;;;;;;;3.23;2.20;;;20.30;97.10;;;;;;5013031;28;20512;-76
2021/05/29 10:03:07;;;;;;;1.40;1.30;;;20.40;97.10;;;;;;5015236;28;20447;-76
2021/05/29 10:05:39;;;;;;;1.57;1.47;;;20.60;96.90;;;;;;5024474;28;20795;-76
2021/05/29 10:08:06;;;;;;;1.90;1.80;;;20.70;97.30;;;;;;5018934;28;20448;-76
2021/05/29 10:10:34;;;;;;;1.40;1.30;;;20.70;97.40;;;;;;4994181;28;20826;-76
2021/05/29 10:13:01;;;;;;;3.53;2.27;;;20.80;97.30;;;;;;5027029;28;20555;-76
2021/05/29 10:15:28;;;;;;;4.10;3.70;;;20.70;96.80;;;;;;5009196;28;20515;-76
2021/05/29 10:18:00;;;;;;;2.13;1.60;;;20.70;96.90;;;;;;5049314;28;20447;-76
2021/05/29 10:20:26;;;;;;;3.30;3.00;;;20.60;95.90;;;;;;5061205;28;20460;-76
2021/05/29 10:22:52;;;;;;;1.60;1.50;;;20.40;95.40;;;;;;5024253;28;20462;-76
2021/05/29 10:25:21;;;;;;;2.30;1.63;;;20.40;95.30;;;;;;5032955;28;20224;-76
2021/05/29 10:27:51;;;;;;;2.10;1.73;;;20.50;95.90;;;;;;5019245;28;20464;-76
2021/05/29 10:30:20;;;;;;;1.63;1.53;;;20.50;95.10;;;;;;4994865;28;20487;-76
2021/05/29 10:33:10;;;;;;;2.20;1.43;;;20.40;95.20;;;;;;5042016;28;20468;-76
2021/05/29 10:35:40;;;;;;;1.57;1.47;;;20.40;95.10;;;;;;5024363;28;20452;-76
2021/05/29 10:38:09;;;;;;;1.53;1.43;;;20.40;94.90;;;;;;5027756;28;20448;-76
2021/05/29 10:40:38;;;;;;;3.17;1.73;;;20.50;94.80;;;;;;4994053;28;20459;-76
2021/05/29 10:43:07;;;;;;;1.57;1.47;;;20.40;94.50;;;;;;5026660;28;20448;-76
2021/05/29 10:45:53;;;;;;;1.37;1.20;;;20.30;94.20;;;;;;5024209;28;20519;-76
2021/05/29 10:48:20;;;;;;;1.80;1.70;;;20.50;94.60;;;;;;5024198;28;20455;-76
2021/05/29 10:50:56;;;;;;;1.37;1.20;;;20.40;94.20;;;;;;5031018;28;20527;-76
2021/05/29 10:53:44;;;;;;;1.20;1.20;;;20.50;93.90;;;;;;5030169;28;20471;-76
2021/05/29 10:56:24;;;;;;;1.20;1.20;;;20.50;93.70;;;;;;5030254;28;20452;-76
2021/05/29 10:59:13;;;;;;;1.40;1.30;;;20.60;93.80;;;;;;5014084;28;20538;-76
2021/05/29 11:01:40;;;;;;;1.10;1.10;;;20.70;94.00;;;;;;5071901;28;20452;-76
2021/05/29 11:04:15;;;;;;;2.10;1.43;;;20.80;93.20;;;;;;5073771;28;20852;-76
2021/05/29 11:07:01;;;;;;;1.20;1.20;;;20.70;93.20;;;;;;5080486;28;20433;-76
2021/05/29 11:09:30;;;;;;;1.37;1.10;;;20.90;93.60;;;;;;5045594;28;20462;-76
2021/05/29 11:11:59;;;;;;;1.23;1.20;;;21.00;93.50;;;;;;5060290;28;20504;-76
2021/05/29 11:14:30;;;;;;;1.07;1.07;;;21.10;93.20;;;;;;5076818;28;20514;-76
2021/05/29 11:16:57;;;;;;;1.13;1.07;;;21.20;92.90;;;;;;5046381;28;20447;-76
2021/05/29 11:19:25;;;;;;;1.37;1.27;;;21.20;93.50;;;;;;5061303;28;20471;-76
2021/05/29 11:22:13;;;;;;;1.20;1.20;;;21.40;93.40;;;;;;5031211;28;20455;-76
2021/05/29 11:24:54;;;;;;;1.50;1.40;;;21.50;93.30;;;;;;5082341;28;20960;-76
2021/05/29 11:27:24;;;;;;;1.77;1.67;;;21.40;93.10;;;;;;5025251;28;20447;-76
2021/05/29 11:29:53;;;;;;;1.47;1.37;;;21.30;92.90;;;;;;5080329;28;20443;-76
2021/05/29 11:33:12;;;;;;;1.60;1.50;;;21.20;92.00;;;;;;5062990;28;20562;-76
2021/05/29 11:35:46;;;;;;;1.03;1.03;;;21.30;92.30;;;;;;5003660;28;20526;-76
2021/05/29 11:38:33;;;;;;;1.07;1.07;;;21.30;92.40;;;;;;5009802;28;20475;-76
2021/05/29 11:41:11;;;;;;;1.50;1.40;;;21.40;92.60;;;;;;5040404;28;20447;-76
2021/05/29 11:43:43;;;;;;;1.60;1.50;;;21.40;92.90;;;;;;5061898;28;21086;-76
2021/05/29 11:46:12;;;;;;;2.83;1.10;;;21.40;92.20;;;;;;5060604;28;20459;-76
2021/05/29 11:48:41;;;;;;;1.93;1.43;;;21.60;91.80;;;;;;5035698;28;20883;-76
2021/05/29 11:51:09;;;;;;;1.20;1.20;;;21.80;92.70;;;;;;5013777;28;20493;-76
2021/05/29 11:53:35;;;;;;;2.30;1.63;;;21.70;92.50;;;;;;5046105;28;20464;-76
2021/05/29 11:56:05;;;;;;;2.97;1.53;;;21.70;92.80;;;;;;5013901;28;20476;-76
2021/05/29 11:58:51;;;;;;;1.50;1.40;;;21.70;92.20;;;;;;5013198;28;20483;-76
2021/05/29 12:01:19;;;;;;;1.70;1.50;;;21.70;91.80;;;;;;5028270;28;20447;-76
2021/05/29 12:03:48;;;;;;;1.83;1.20;;;21.40;91.50;;;;;;5059615;28;20864;-76
2021/05/29 12:06:37;;;;;;;1.43;1.40;;;21.60;91.70;;;;;;5023547;28;20443;-76
2021/05/29 12:09:10;;;;;;;1.20;1.13;;;21.80;92.10;;;;;;5043991;28;20450;-76
2021/05/29 12:11:38;;;;;;;0.97;0.97;;;22.00;91.90;;;;;;5008579;28;20467;-76
2021/05/29 12:14:08;;;;;;;1.37;1.27;;;21.90;92.20;;;;;;5053018;28;20488;-76
2021/05/29 12:16:40;;;;;;;1.47;1.37;;;22.00;92.20;;;;;;5023161;28;20447;-76
2021/05/29 12:19:07;;;;;;;1.83;1.43;;;22.10;92.20;;;;;;5040802;28;20460;-76
2021/05/29 12:21:55;;;;;;;1.53;1.43;;;22.20;92.50;;;;;;5016370;28;20940;-76
2021/05/29 12:24:23;;;;;;;1.10;1.10;;;22.30;92.50;;;;;;5010805;28;20983;-76
2021/05/29 12:26:51;;;;;;;1.37;1.30;;;22.40;91.20;;;;;;5005574;28;20476;-76
2021/05/29 12:29:21;;;;;;;1.20;1.20;;;22.50;91.90;;;;;;5008019;28;20460;-76
2021/05/29 12:31:50;;;;;;;1.60;1.47;;;22.60;92.10;;;;;;5036878;28;20475;-76
2021/05/29 12:34:16;;;;;;;1.50;1.40;;;22.40;90.80;;;;;;5031903;28;20596;-76
2021/05/29 12:37:04;;;;;;;1.77;1.67;;;22.40;90.40;;;;;;5017837;28;20528;-76
2021/05/29 12:39:52;;;;;;;1.83;1.73;;;22.40;90.60;;;;;;5055591;28;20271;-76
2021/05/29 12:42:22;;;;;;;1.30;1.20;;;22.50;90.20;;;;;;5049838;28;20965;-76
2021/05/29 12:44:55;;;;;;;2.20;1.73;;;22.50;91.20;;;;;;5017896;28;20988;-76
2021/05/29 12:47:24;;;;;;;1.57;1.47;;;22.70;91.40;;;;;;5047394;28;20546;-76
2021/05/29 12:49:52;;;;;;;1.33;1.23;;;22.60;90.10;;;;;;5071088;28;20458;-76
2021/05/29 12:52:32;;;;;;;4.93;0.97;;;22.60;88.60;;;;;;5054781;28;21069;-75
2021/05/29 12:54:59;;;;;;;3.27;1.33;;;22.80;90.50;;;;;;5043477;28;20472;-75
2021/05/29 12:57:38;;;;;;;1.13;1.13;;;23.00;89.90;;;;;;5028523;28;20451;-75
2021/05/29 13:00:20;;;;;;;1.67;1.40;;;22.80;89.00;;;;;;5045508;28;20823;-74
2021/05/29 13:11:08;;;;;;;1.43;1.23;;;22.70;87.00;;;;;;5042081;28;20538;-75
2021/05/29 13:14:20;;;;;;;1.10;1.00;;;22.80;87.60;;;;;;5002988;28;20460;-74
2021/05/29 13:16:57;;;;;;;1.43;1.30;;;22.70;87.60;;;;;;5046236;28;20567;-75